createdAt,value
2016-02-24T00:00:10.048Z,0
2016-02-24T00:00:22.470Z,0
2016-02-24T00:02:13.991Z,0
2016-02-24T00:02:26.475Z,0
2016-02-24T00:04:17.919Z,0
2016-02-24T00:04:43.216Z,0
2016-02-24T00:06:46.642Z,0
2016-02-24T00:06:59.239Z,0
2016-02-24T00:09:01.838Z,0
2016-02-24T00:09:36.838Z,0
2016-02-24T00:10:14.669Z,0
2016-02-24T00:12:17.252Z,0
2016-02-24T00:12:49.018Z,0
2016-02-24T00:13:29.848Z,0
2016-02-24T00:15:32.463Z,0
2016-02-24T00:16:10.747Z,0
2016-02-24T00:16:45.059Z,0
2016-02-24T00:18:47.706Z,0
2016-02-24T00:19:26.020Z,0
2016-02-24T00:20:57.354Z,0
2016-02-24T00:22:45.232Z,0
2016-02-24T00:26:35.681Z,0
2016-02-24T00:28:38.920Z,0
2016-02-24T00:29:22.767Z,0
2016-02-24T00:29:51.533Z,0
2016-02-24T00:30:51.520Z,0
2016-02-24T00:31:51.522Z,0
2016-02-24T00:33:04.278Z,0
2016-02-24T00:33:51.684Z,0
2016-02-24T00:35:42.912Z,0
2016-02-24T00:35:58.541Z,0
2016-02-24T00:37:52.496Z,0
2016-02-24T00:39:02.048Z,0
2016-02-24T00:40:04.504Z,0
2016-02-24T00:41:52.335Z,0
2016-02-24T00:44:38.812Z,0
2016-02-24T00:45:07.737Z,0
2016-02-24T00:47:13.773Z,0
2016-02-24T00:48:07.542Z,0
2016-02-24T00:49:26.748Z,0
2016-02-24T00:50:20.297Z,0
2016-02-24T00:52:29.395Z,0
2016-02-24T00:52:48.239Z,0
2016-02-24T00:54:44.604Z,0
2016-02-24T00:55:16.357Z,0
2016-02-24T00:55:57.281Z,0
2016-02-24T00:57:09.925Z,0
2016-02-24T00:57:57.208Z,0
2016-02-24T00:59:54.197Z,0
2016-02-24T01:01:03.732Z,0
2016-02-24T01:02:06.861Z,0
2016-02-24T01:03:16.488Z,0
2016-02-24T01:04:26.038Z,0
2016-02-24T01:05:04.119Z,0
2016-02-24T01:07:13.160Z,0
2016-02-24T01:08:32.116Z,0
2016-02-24T01:10:19.996Z,0
2016-02-24T01:12:16.970Z,0
2016-02-24T01:13:00.848Z,0
2016-02-24T01:14:27.178Z,0
2016-02-24T01:14:39.740Z,0
2016-02-24T01:16:31.121Z,0
2016-02-24T01:16:46.731Z,0
2016-02-24T01:18:40.736Z,0
2016-02-24T01:19:18.973Z,0
2016-02-24T01:19:53.395Z,0
2016-02-24T01:21:55.947Z,0
2016-02-24T01:22:08.512Z,0
2016-02-24T01:23:08.547Z,0
2016-02-24T01:24:14.831Z,0
2016-02-24T01:25:21.286Z,0
2016-02-24T01:26:21.148Z,0
2016-02-24T01:27:59.904Z,0
2016-02-24T01:28:37.998Z,0
2016-02-24T01:30:40.956Z,0
2016-02-24T01:31:12.740Z,0
2016-02-24T01:32:06.305Z,0
2016-02-24T01:32:53.664Z,0
2016-02-24T01:33:53.542Z,0
2016-02-24T01:34:54.170Z,0
2016-02-24T01:36:06.347Z,0
2016-02-24T01:37:06.552Z,0
2016-02-24T01:38:19.275Z,0
2016-02-24T01:39:12.855Z,0
2016-02-24T01:41:34.313Z,0
2016-02-24T01:42:34.535Z,0
2016-02-24T01:44:31.526Z,0
2016-02-24T01:45:15.434Z,0
2016-02-24T01:45:44.137Z,0
2016-02-24T01:47:44.158Z,0
2016-02-24T01:48:44.145Z,0
2016-02-24T01:49:56.914Z,0
2016-02-24T01:50:56.900Z,0
2016-02-24T01:52:03.390Z,0
2016-02-24T01:53:03.425Z,0
2016-02-24T01:54:46.834Z,0
2016-02-24T01:54:59.476Z,0
2016-02-24T01:56:49.947Z,0
2016-02-24T01:57:08.811Z,0
2016-02-24T01:59:12.253Z,0
2016-02-24T01:59:24.909Z,0
2016-02-24T02:00:24.819Z,0
2016-02-24T02:01:37.555Z,0
2016-02-24T02:02:37.636Z,0
2016-02-24T02:03:44.091Z,0
2016-02-24T02:05:53.627Z,0
2016-02-24T02:06:34.427Z,0
2016-02-24T02:07:27.993Z,0
2016-02-24T02:09:19.921Z,0
2016-02-24T02:09:53.139Z,0
2016-02-24T02:10:38.782Z,0
2016-02-24T02:12:35.147Z,0
2016-02-24T02:12:47.741Z,0
2016-02-24T02:13:47.744Z,0
2016-02-24T02:15:00.498Z,0
2016-02-24T02:15:48.154Z,0
2016-02-24T02:16:47.768Z,0
2016-02-24T02:17:54.035Z,0
2016-02-24T02:18:54.070Z,0
2016-02-24T02:19:47.870Z,0
2016-02-24T02:21:00.578Z,0
2016-02-24T02:21:54.078Z,0
2016-02-24T02:23:46.380Z,0
2016-02-24T02:24:24.648Z,0
2016-02-24T02:27:03.016Z,0
2016-02-24T02:27:49.937Z,0
2016-02-24T02:28:34.784Z,0
2016-02-24T02:29:21.865Z,0
2016-02-24T02:30:15.634Z,0
2016-02-24T02:31:28.370Z,0
2016-02-24T02:32:15.639Z,0
2016-02-24T02:33:34.986Z,0
2016-02-24T02:34:28.394Z,0
2016-02-24T02:35:46.975Z,0
2016-02-24T02:36:34.961Z,0
2016-02-24T02:37:41.183Z,0
2016-02-24T02:39:06.251Z,0
2016-02-24T02:39:44.516Z,0
2016-02-24T02:42:44.337Z,0
2016-02-24T02:44:28.608Z,0
2016-02-24T02:45:06.845Z,0
2016-02-24T02:46:32.520Z,0
2016-02-24T02:47:16.366Z,0
2016-02-24T02:48:16.494Z,0
2016-02-24T02:50:16.562Z,0
2016-02-24T02:50:45.171Z,0
2016-02-24T02:51:45.173Z,0
2016-02-24T02:52:45.162Z,0
2016-02-24T02:53:45.179Z,0
2016-02-24T02:54:51.447Z,0
2016-02-24T02:55:52.888Z,0
2016-02-24T02:56:57.937Z,0
2016-02-24T02:58:10.912Z,0
2016-02-24T02:59:04.227Z,0
2016-02-24T03:00:16.557Z,0
2016-02-24T03:01:10.935Z,0
2016-02-24T03:01:45.263Z,0
2016-02-24T03:03:42.316Z,0
2016-02-24T03:03:54.878Z,0
2016-02-24T03:04:54.880Z,0
2016-02-24T03:06:07.652Z,0
2016-02-24T03:07:01.201Z,0
2016-02-24T03:08:14.314Z,0
2016-02-24T03:09:07.785Z,0
2016-02-24T03:10:20.647Z,0
2016-02-24T03:11:14.213Z,0
2016-02-24T03:12:51.933Z,0
2016-02-24T03:13:04.483Z,0
2016-02-24T03:14:30.189Z,0
2016-02-24T03:15:11.395Z,0
2016-02-24T03:17:20.495Z,0
2016-02-24T03:18:20.514Z,0
2016-02-24T03:19:20.485Z,0
2016-02-24T03:20:21.893Z,0
2016-02-24T03:21:21.147Z,0
2016-02-24T03:22:39.743Z,0
2016-02-24T03:23:33.324Z,0
2016-02-24T03:24:46.248Z,0
2016-02-24T03:26:11.143Z,0
2016-02-24T03:26:49.393Z,0
2016-02-24T03:27:23.710Z,0
2016-02-24T03:29:24.371Z,0
2016-02-24T03:29:36.918Z,0
2016-02-24T03:30:37.014Z,0
2016-02-24T03:31:49.704Z,0
2016-02-24T03:32:37.192Z,0
2016-02-24T03:33:56.194Z,0
2016-02-24T03:34:43.290Z,0
2016-02-24T03:35:36.996Z,0
2016-02-24T03:36:37.045Z,0
2016-02-24T03:37:37.064Z,0
2016-02-24T03:38:37.426Z,0
2016-02-24T03:39:49.836Z,0
2016-02-24T03:40:43.336Z,0
2016-02-24T03:41:56.264Z,0
2016-02-24T03:42:37.035Z,0
2016-02-24T03:44:52.266Z,0
2016-02-24T03:46:05.023Z,0
2016-02-24T03:46:52.273Z,0
2016-02-24T03:47:52.302Z,0
2016-02-24T03:48:58.519Z,0
2016-02-24T03:50:00.016Z,0
2016-02-24T03:51:11.486Z,0
2016-02-24T03:51:55.361Z,0
2016-02-24T03:54:02.115Z,0
2016-02-24T03:55:02.100Z,0
2016-02-24T03:56:02.086Z,0
2016-02-24T03:57:02.105Z,0
2016-02-24T03:58:02.122Z,0
2016-02-24T03:59:08.264Z,0
2016-02-24T04:00:02.157Z,0
2016-02-24T04:01:02.129Z,0
2016-02-24T04:02:02.271Z,0
2016-02-24T04:03:02.181Z,0
2016-02-24T04:04:02.339Z,0
2016-02-24T04:05:02.191Z,0
2016-02-24T04:06:03.647Z,0
2016-02-24T04:07:02.228Z,0
2016-02-24T04:08:02.246Z,0
2016-02-24T04:09:03.686Z,0
2016-02-24T04:10:02.392Z,0
2016-02-24T04:11:14.989Z,0
2016-02-24T04:12:15.022Z,0
2016-02-24T04:13:28.025Z,0
2016-02-24T04:14:21.544Z,0
2016-02-24T04:16:24.752Z,0
2016-02-24T04:16:37.314Z,0
2016-02-24T04:18:39.929Z,0
2016-02-24T04:18:52.585Z,0
2016-02-24T04:19:52.541Z,0
2016-02-24T04:20:52.527Z,0
2016-02-24T04:21:52.609Z,0
2016-02-24T04:22:52.596Z,0
2016-02-24T04:23:52.614Z,0
2016-02-24T04:24:52.742Z,0
2016-02-24T04:26:05.357Z,0
2016-02-24T04:26:52.669Z,0
2016-02-24T04:28:18.332Z,0
2016-02-24T04:28:53.253Z,0
2016-02-24T04:31:33.527Z,0
2016-02-24T04:32:07.826Z,0
2016-02-24T04:33:08.626Z,0
2016-02-24T04:34:08.473Z,0
2016-02-24T04:35:59.805Z,0
2016-02-24T04:36:15.445Z,0
2016-02-24T04:38:09.451Z,0
2016-02-24T04:38:22.139Z,0
2016-02-24T04:39:34.736Z,0
2016-02-24T04:40:28.300Z,0
2016-02-24T04:41:41.287Z,0
2016-02-24T04:42:41.290Z,0
2016-02-24T04:43:53.403Z,0
2016-02-24T04:44:41.359Z,0
2016-02-24T04:46:19.097Z,0
2016-02-24T04:47:22.226Z,0
2016-02-24T04:48:31.775Z,0
2016-02-24T04:49:34.856Z,0
2016-02-24T04:50:06.655Z,0
2016-02-24T04:52:15.739Z,0
2016-02-24T04:52:59.614Z,0
2016-02-24T04:54:25.499Z,0
2016-02-24T04:55:06.751Z,0
2016-02-24T04:56:28.597Z,0
2016-02-24T04:57:38.163Z,0
2016-02-24T04:59:19.496Z,0
2016-02-24T05:00:26.092Z,0
2016-02-24T05:01:00.299Z,0
2016-02-24T05:02:50.895Z,0
2016-02-24T05:03:03.475Z,0
2016-02-24T05:05:49.966Z,0
2016-02-24T05:06:18.702Z,0
2016-02-24T05:07:18.658Z,0
2016-02-24T05:08:18.693Z,0
2016-02-24T05:09:18.710Z,0
2016-02-24T05:10:18.791Z,0
2016-02-24T05:11:18.732Z,0
2016-02-24T05:12:31.500Z,0
2016-02-24T05:13:19.362Z,0
2016-02-24T05:14:38.005Z,0
2016-02-24T05:15:18.758Z,0
2016-02-24T05:16:18.808Z,0
2016-02-24T05:17:19.013Z,0
2016-02-24T05:18:31.595Z,0
2016-02-24T05:19:19.018Z,0
2016-02-24T05:21:22.133Z,0
2016-02-24T05:22:18.840Z,0
2016-02-24T05:22:53.996Z,0
2016-02-24T05:24:00.407Z,0
2016-02-24T05:25:06.285Z,0
2016-02-24T05:26:06.084Z,0
2016-02-24T05:27:41.087Z,0
2016-02-24T05:28:34.950Z,0
2016-02-24T05:29:34.795Z,0
2016-02-24T05:30:34.861Z,0
2016-02-24T05:31:47.613Z,0
2016-02-24T05:32:47.616Z,0
2016-02-24T05:34:00.512Z,0
2016-02-24T05:36:47.736Z,0
2016-02-24T05:37:47.973Z,0
2016-02-24T05:39:00.526Z,0
2016-02-24T05:40:00.607Z,0
2016-02-24T05:41:13.406Z,0
2016-02-24T05:44:19.835Z,0
2016-02-24T05:45:00.777Z,0
2016-02-24T05:46:57.638Z,0
2016-02-24T05:47:13.250Z,0
2016-02-24T05:49:38.318Z,0
2016-02-24T05:49:50.896Z,0
2016-02-24T05:51:53.558Z,0
2016-02-24T05:52:31.779Z,0
2016-02-24T05:53:06.157Z,0
2016-02-24T05:55:08.757Z,0
2016-02-24T05:55:21.320Z,0
2016-02-24T05:56:21.353Z,0
2016-02-24T05:57:21.528Z,0
2016-02-24T05:58:27.623Z,0
2016-02-24T05:59:27.611Z,0
2016-02-24T06:00:34.144Z,0
2016-02-24T06:01:21.413Z,0
2016-02-24T06:02:40.587Z,0
2016-02-24T06:03:21.606Z,0
2016-02-24T06:05:12.752Z,0
2016-02-24T06:05:25.299Z,0
2016-02-24T06:07:27.944Z,0
2016-02-24T06:08:06.229Z,0
2016-02-24T06:08:40.573Z,0
2016-02-24T06:10:38.109Z,0
2016-02-24T06:10:50.703Z,0
2016-02-24T06:12:53.959Z,0
2016-02-24T06:13:25.853Z,5
2016-02-24T06:14:06.542Z,5
2016-02-24T06:16:09.783Z,5
2016-02-24T06:16:41.595Z,5
2016-02-24T06:17:22.363Z,5
2016-02-24T06:19:19.963Z,5
2016-02-24T06:19:32.525Z,5
2016-02-24T06:20:45.622Z,10
2016-02-24T06:21:32.577Z,10
2016-02-24T06:22:58.252Z,10
2016-02-24T06:23:32.583Z,10
2016-02-24T06:25:23.119Z,15
2016-02-24T06:25:35.729Z,15
2016-02-24T06:27:07.140Z,15
2016-02-24T06:27:35.734Z,15
2016-02-24T06:29:32.739Z,20
2016-02-24T06:29:48.332Z,20
2016-02-24T06:31:42.307Z,20
2016-02-24T06:32:01.010Z,25
2016-02-24T06:33:51.937Z,25
2016-02-24T06:34:30.190Z,25
2016-02-24T06:35:04.551Z,30
2016-02-24T06:36:04.540Z,30
2016-02-24T06:37:04.792Z,30
2016-02-24T06:38:04.560Z,35
2016-02-24T06:39:04.594Z,40
2016-02-24T06:40:06.019Z,40
2016-02-24T06:41:10.881Z,40
2016-02-24T06:42:04.586Z,40
2016-02-24T06:43:17.403Z,45
2016-02-24T06:44:17.497Z,45
2016-02-24T06:45:04.603Z,50
2016-02-24T06:46:17.387Z,50
2016-02-24T06:47:10.414Z,55
2016-02-24T06:48:04.829Z,55
2016-02-24T06:49:03.941Z,55
2016-02-24T06:50:17.303Z,60
2016-02-24T06:51:04.728Z,60
2016-02-24T06:52:04.730Z,60
2016-02-24T06:53:04.780Z,60
2016-02-24T06:54:04.783Z,65
2016-02-24T06:55:04.771Z,65
2016-02-24T06:56:04.804Z,65
2016-02-24T06:57:04.775Z,65
2016-02-24T06:58:04.810Z,70
2016-02-24T06:59:04.812Z,75
2016-02-24T07:00:04.830Z,75
2016-02-24T07:01:04.849Z,75
2016-02-24T07:02:04.946Z,80
2016-02-24T07:03:04.838Z,80
2016-02-24T07:04:05.075Z,85
2016-02-24T07:05:04.860Z,90
2016-02-24T07:06:05.112Z,95
2016-02-24T07:07:05.177Z,100
2016-02-24T07:08:05.040Z,110
2016-02-24T07:09:05.391Z,130
2016-02-24T07:10:05.064Z,160
2016-02-24T07:11:05.318Z,180
2016-02-24T07:12:05.086Z,195
2016-02-24T07:13:05.855Z,185
2016-02-24T07:14:05.013Z,205
2016-02-24T07:15:05.235Z,190
2016-02-24T07:16:05.097Z,195
2016-02-24T07:17:05.224Z,155
2016-02-24T07:18:05.400Z,135
2016-02-24T07:19:05.183Z,135
2016-02-24T07:20:05.060Z,135
2016-02-24T07:21:05.173Z,140
2016-02-24T07:22:05.113Z,140
2016-02-24T07:23:05.100Z,140
2016-02-24T07:24:08.306Z,135
2016-02-24T07:25:07.512Z,135
2016-02-24T07:26:05.280Z,135
2016-02-24T07:27:24.517Z,135
2016-02-24T07:28:05.786Z,130
2016-02-24T07:29:05.179Z,130
2016-02-24T07:30:05.307Z,135
2016-02-24T07:31:05.231Z,130
2016-02-24T07:32:05.281Z,130
2016-02-24T07:33:05.221Z,125
2016-02-24T07:34:18.067Z,125
2016-02-24T07:35:05.257Z,125
2016-02-24T07:37:02.262Z,130
2016-02-24T07:37:40.528Z,130
2016-02-24T07:38:14.859Z,130
2016-02-24T07:39:14.877Z,130
2016-02-24T07:40:14.895Z,130
2016-02-24T07:41:14.930Z,130
2016-02-24T07:42:14.775Z,130
2016-02-24T07:43:16.482Z,135
2016-02-24T07:44:14.938Z,135
2016-02-24T07:45:14.972Z,135
2016-02-24T07:46:15.724Z,135
2016-02-24T07:47:15.118Z,135
2016-02-24T07:48:14.980Z,140
2016-02-24T07:49:14.999Z,140
2016-02-24T07:50:15.126Z,140
2016-02-24T07:51:15.097Z,140
2016-02-24T07:52:15.116Z,140
2016-02-24T07:53:15.228Z,140
2016-02-24T07:54:15.168Z,140
2016-02-24T07:55:15.343Z,145
2016-02-24T07:56:15.143Z,145
2016-02-24T07:57:15.160Z,145
2016-02-24T07:58:15.101Z,145
2016-02-24T07:59:15.135Z,145
2016-02-24T08:00:15.121Z,145
2016-02-24T08:01:15.171Z,145
2016-02-24T08:02:15.345Z,150
2016-02-24T08:03:15.193Z,150
2016-02-24T08:04:15.226Z,155
2016-02-24T08:05:28.087Z,150
2016-02-24T08:06:15.404Z,150
2016-02-24T08:08:12.456Z,150
2016-02-24T08:08:50.690Z,155
2016-02-24T08:09:24.989Z,155
2016-02-24T08:10:25.226Z,155
2016-02-24T08:11:25.229Z,160
2016-02-24T08:12:25.186Z,160
2016-02-24T08:13:25.188Z,170
2016-02-24T08:14:25.206Z,170
2016-02-24T08:15:25.489Z,165
2016-02-24T08:16:25.180Z,160
2016-02-24T08:17:25.369Z,160
2016-02-24T08:18:25.185Z,160
2016-02-24T08:19:25.391Z,165
2016-02-24T08:20:25.269Z,160
2016-02-24T08:21:37.959Z,155
2016-02-24T08:22:25.212Z,155
2016-02-24T08:23:25.449Z,155
2016-02-24T08:24:25.233Z,155
2016-02-24T08:25:25.313Z,160
2016-02-24T08:26:25.285Z,155
2016-02-24T08:27:25.319Z,155
2016-02-24T08:28:25.321Z,160
2016-02-24T08:29:25.372Z,160
2016-02-24T08:30:26.734Z,160
2016-02-24T08:31:25.314Z,160
2016-02-24T08:32:25.957Z,160
2016-02-24T08:33:25.382Z,160
2016-02-24T08:34:25.479Z,160
2016-02-24T08:35:26.012Z,160
2016-02-24T08:36:25.500Z,160
2016-02-24T08:37:25.424Z,160
2016-02-24T08:38:25.505Z,165
2016-02-24T08:39:25.429Z,165
2016-02-24T08:40:25.526Z,160
2016-02-24T08:41:25.466Z,165
2016-02-24T08:42:25.484Z,160
2016-02-24T08:43:25.487Z,160
2016-02-24T08:44:25.505Z,160
2016-02-24T08:45:25.555Z,160
2016-02-24T08:46:25.573Z,160
2016-02-24T08:47:31.842Z,160
2016-02-24T08:48:25.578Z,160
2016-02-24T08:49:25.706Z,165
2016-02-24T08:50:25.600Z,165
2016-02-24T08:51:25.696Z,165
2016-02-24T08:52:25.668Z,165
2016-02-24T08:53:25.499Z,165
2016-02-24T08:54:31.954Z,165
2016-02-24T08:55:25.691Z,165
2016-02-24T08:56:25.694Z,165
2016-02-24T08:57:25.697Z,165
2016-02-24T08:58:25.730Z,165
2016-02-24T08:59:25.733Z,165
2016-02-24T09:00:25.752Z,165
2016-02-24T09:01:25.754Z,165
2016-02-24T09:02:25.788Z,165
2016-02-24T09:03:25.791Z,165
2016-02-24T09:04:25.825Z,165
2016-02-24T09:05:25.812Z,165
2016-02-24T09:06:25.877Z,170
2016-02-24T09:07:25.864Z,170
2016-02-24T09:08:25.867Z,170
2016-02-24T09:09:25.854Z,170
2016-02-24T09:10:37.982Z,170
2016-02-24T09:11:25.875Z,170
2016-02-24T09:12:25.940Z,175
2016-02-24T09:13:25.959Z,170
2016-02-24T09:14:25.945Z,175
2016-02-24T09:15:26.057Z,175
2016-02-24T09:16:26.014Z,180
2016-02-24T09:17:38.844Z,180
2016-02-24T09:18:26.003Z,180
2016-02-24T09:19:45.334Z,200
2016-02-24T09:20:32.399Z,185
2016-02-24T09:21:26.089Z,190
2016-02-24T09:22:26.092Z,190
2016-02-24T09:23:32.438Z,190
2016-02-24T09:24:26.035Z,190
2016-02-24T09:25:38.802Z,190
2016-02-24T09:26:26.166Z,195
2016-02-24T09:27:38.855Z,185
2016-02-24T09:28:26.155Z,185
2016-02-24T09:29:26.158Z,185
2016-02-24T09:30:26.285Z,180
2016-02-24T09:31:26.194Z,200
2016-02-24T09:32:26.229Z,210
2016-02-24T09:33:26.231Z,225
2016-02-24T09:34:26.358Z,215
2016-02-24T09:35:26.236Z,205
2016-02-24T09:36:26.286Z,195
2016-02-24T09:37:26.289Z,190
2016-02-24T09:38:26.307Z,185
2016-02-24T09:39:26.278Z,180
2016-02-24T09:40:26.297Z,180
2016-02-24T09:41:26.345Z,180
2016-02-24T09:42:26.709Z,180
2016-02-24T09:43:39.148Z,180
2016-02-24T09:44:26.369Z,180
2016-02-24T09:45:39.154Z,180
2016-02-24T09:46:26.438Z,180
2016-02-24T09:47:26.566Z,180
2016-02-24T09:48:26.444Z,180
2016-02-24T09:49:26.539Z,180
2016-02-24T09:50:26.480Z,180
2016-02-24T09:51:26.514Z,185
2016-02-24T09:52:27.110Z,185
2016-02-24T09:53:39.238Z,185
2016-02-24T09:54:26.678Z,190
2016-02-24T09:55:26.744Z,190
2016-02-24T09:56:26.558Z,185
2016-02-24T09:57:26.733Z,185
2016-02-24T09:58:26.955Z,180
2016-02-24T09:59:26.754Z,185
2016-02-24T10:00:26.929Z,185
2016-02-24T10:01:39.384Z,190
2016-02-24T10:02:26.887Z,195
2016-02-24T10:03:52.342Z,205
2016-02-24T10:04:26.893Z,205
2016-02-24T10:05:26.801Z,210
2016-02-24T10:06:26.945Z,215
2016-02-24T10:07:26.745Z,215
2016-02-24T10:08:26.918Z,205
2016-02-24T10:09:26.781Z,200
2016-02-24T10:10:26.831Z,200
2016-02-24T10:11:26.926Z,205
2016-02-24T10:12:26.804Z,200
2016-02-24T10:13:26.870Z,190
2016-02-24T10:14:33.092Z,190
2016-02-24T10:15:26.859Z,190
2016-02-24T10:16:26.862Z,195
2016-02-24T10:17:26.928Z,200
2016-02-24T10:18:26.899Z,200
2016-02-24T10:19:33.277Z,205
2016-02-24T10:20:26.936Z,210
2016-02-24T10:21:26.938Z,220
2016-02-24T10:22:26.988Z,210
2016-02-24T10:23:26.991Z,230
2016-02-24T10:24:27.008Z,275
2016-02-24T10:25:27.011Z,295
2016-02-24T10:26:27.030Z,310
2016-02-24T10:27:27.048Z,325
2016-02-24T10:28:27.113Z,330
2016-02-24T10:29:27.069Z,345
2016-02-24T10:30:27.071Z,335
2016-02-24T10:31:27.121Z,345
2016-02-24T10:32:27.124Z,335
2016-02-24T10:33:33.454Z,315
2016-02-24T10:34:27.302Z,350
2016-02-24T10:35:46.382Z,340
2016-02-24T10:36:30.182Z,340
2016-02-24T10:37:27.231Z,315
2016-02-24T10:38:27.218Z,295
2016-02-24T10:39:27.252Z,295
2016-02-24T10:40:27.254Z,320
2016-02-24T10:41:27.304Z,325
2016-02-24T10:42:27.323Z,290
2016-02-24T10:43:27.387Z,280
2016-02-24T10:44:27.329Z,250
2016-02-24T10:45:27.331Z,265
2016-02-24T10:46:28.849Z,320
2016-02-24T10:47:27.414Z,335
2016-02-24T10:48:27.401Z,330
2016-02-24T10:49:27.450Z,305
2016-02-24T10:50:40.188Z,350
2016-02-24T10:51:40.206Z,340
2016-02-24T10:52:27.506Z,340
2016-02-24T10:53:27.462Z,320
2016-02-24T10:54:27.621Z,280
2016-02-24T10:55:27.904Z,260
2016-02-24T10:56:27.548Z,260
2016-02-24T10:57:40.285Z,305
2016-02-24T10:58:27.584Z,315
2016-02-24T10:59:46.869Z,295
2016-02-24T11:00:27.637Z,305
2016-02-24T11:01:53.436Z,315
2016-02-24T11:02:29.080Z,305
2016-02-24T11:04:30.288Z,305
2016-02-24T11:05:08.541Z,300
2016-02-24T11:05:42.885Z,320
2016-02-24T11:06:42.903Z,335
2016-02-24T11:07:42.906Z,315
2016-02-24T11:08:43.017Z,315
2016-02-24T11:09:42.926Z,330
2016-02-24T11:10:43.023Z,305
2016-02-24T11:11:55.698Z,340
2016-02-24T11:12:42.998Z,350
2016-02-24T11:13:43.001Z,345
2016-02-24T11:14:43.050Z,340
2016-02-24T11:15:49.287Z,360
2016-02-24T11:16:43.071Z,370
2016-02-24T11:17:43.261Z,325
2016-02-24T11:18:43.106Z,305
2016-02-24T11:19:43.204Z,315
2016-02-24T11:20:43.128Z,325
2016-02-24T11:21:43.193Z,280
2016-02-24T11:22:43.165Z,250
2016-02-24T11:23:43.199Z,220
2016-02-24T11:24:43.217Z,195
2016-02-24T11:25:43.250Z,225
2016-02-24T11:26:55.972Z,240
2016-02-24T11:27:49.522Z,250
2016-02-24T11:28:43.291Z,285
2016-02-24T11:29:43.308Z,370
2016-02-24T11:30:43.326Z,405
2016-02-24T11:31:43.346Z,370
2016-02-24T11:32:56.113Z,295
2016-02-24T11:33:49.771Z,240
2016-02-24T11:35:02.479Z,205
2016-02-24T11:35:43.496Z,200
2016-02-24T11:36:43.484Z,195
2016-02-24T11:37:56.174Z,180
2016-02-24T11:38:51.160Z,150
2016-02-24T11:39:43.507Z,120
2016-02-24T11:41:09.200Z,110
2016-02-24T11:41:43.528Z,120
2016-02-24T11:43:46.143Z,180
2016-02-24T11:44:18.020Z,190
2016-02-24T11:44:58.739Z,195
2016-02-24T11:45:58.773Z,215
2016-02-24T11:46:58.776Z,200
2016-02-24T11:48:11.610Z,190
2016-02-24T11:48:58.860Z,195
2016-02-24T11:51:27.742Z,175
2016-02-24T11:52:21.323Z,195
2016-02-24T11:54:04.748Z,210
2016-02-24T11:54:33.094Z,220
2016-02-24T11:56:27.037Z,260
2016-02-24T11:57:23.666Z,285
2016-02-24T11:59:21.248Z,285
2016-02-24T12:00:46.298Z,290
2016-02-24T12:01:24.535Z,285
2016-02-24T12:04:04.588Z,300
2016-02-24T12:04:39.621Z,315
2016-02-24T12:05:33.298Z,335
2016-02-24T12:06:46.066Z,355
2016-02-24T12:07:33.334Z,345
2016-02-24T12:09:24.543Z,345
2016-02-24T12:09:37.153Z,350
2016-02-24T12:11:34.111Z,360
2016-02-24T12:11:46.673Z,355
2016-02-24T12:13:43.663Z,305
2016-02-24T12:13:56.225Z,300
2016-02-24T12:15:53.231Z,240
2016-02-24T12:16:05.872Z,240
2016-02-24T12:17:05.827Z,235
2016-02-24T12:18:05.846Z,240
2016-02-24T12:19:18.617Z,235
2016-02-24T12:20:05.898Z,230
2016-02-24T12:21:25.122Z,210
2016-02-24T12:22:06.591Z,200
2016-02-24T12:24:03.112Z,185
2016-02-24T12:25:12.680Z,185
2016-02-24T12:26:27.854Z,185
2016-02-24T12:27:06.104Z,205
2016-02-24T12:27:40.482Z,190
2016-02-24T12:29:38.221Z,210
2016-02-24T12:29:50.924Z,210
2016-02-24T12:31:47.790Z,195
2016-02-24T12:32:00.399Z,200
2016-02-24T12:33:00.417Z,210
2016-02-24T12:34:13.172Z,235
2016-02-24T12:35:01.078Z,240
2016-02-24T12:36:26.131Z,245
2016-02-24T12:37:00.459Z,250
2016-02-24T12:38:52.386Z,255
2016-02-24T12:39:04.964Z,260
2016-02-24T12:40:36.329Z,275
2016-02-24T12:41:11.269Z,280
2016-02-24T12:43:07.634Z,315
2016-02-24T12:43:45.916Z,325
2016-02-24T12:44:20.247Z,335
2016-02-24T12:46:18.734Z,375
2016-02-24T12:46:31.359Z,380
2016-02-24T12:48:22.016Z,365
2016-02-24T12:48:37.625Z,360
2016-02-24T12:50:06.008Z,305
2016-02-24T12:50:47.345Z,255
2016-02-24T12:52:05.931Z,170
2016-02-24T12:52:47.696Z,150
2016-02-24T12:53:34.695Z,140
2016-02-24T12:55:25.177Z,170
2016-02-24T12:56:47.505Z,200
2016-02-24T12:57:44.240Z,250
2016-02-24T12:58:50.678Z,255
2016-02-24T13:00:00.291Z,240
2016-02-24T13:01:09.966Z,225
2016-02-24T13:02:12.436Z,230
2016-02-24T13:03:21.985Z,215
2016-02-24T13:04:31.551Z,220
2016-02-24T13:05:41.116Z,205
2016-02-24T13:06:50.665Z,195
2016-02-24T13:08:00.214Z,185
2016-02-24T13:08:31.998Z,185
2016-02-24T13:11:50.645Z,165
2016-02-24T13:12:25.007Z,165
2016-02-24T13:14:27.638Z,165
2016-02-24T13:15:11.501Z,170
2016-02-24T13:15:40.282Z,175
2016-02-24T13:16:40.254Z,175
2016-02-24T13:17:40.302Z,175
2016-02-24T13:18:52.993Z,165
2016-02-24T13:19:40.323Z,160
2016-02-24T13:20:59.514Z,155
2016-02-24T13:21:40.532Z,150
2016-02-24T13:22:59.565Z,150
2016-02-24T13:23:40.803Z,155
2016-02-24T13:25:05.852Z,150
2016-02-24T13:25:46.762Z,150
2016-02-24T13:27:44.282Z,145
2016-02-24T13:27:56.813Z,150
2016-02-24T13:29:09.663Z,215
2016-02-24T13:30:09.619Z,235
2016-02-24T13:31:16.247Z,230
2016-02-24T13:32:16.108Z,215
2016-02-24T13:33:22.767Z,190
2016-02-24T13:33:56.955Z,180
2016-02-24T13:35:53.944Z,165
2016-02-24T13:36:06.522Z,160
2016-02-24T13:37:06.603Z,165
2016-02-24T13:38:19.328Z,160
2016-02-24T13:39:06.609Z,155
2016-02-24T13:40:57.098Z,155
2016-02-24T13:41:35.336Z,155
2016-02-24T13:42:09.698Z,165
2016-02-24T13:44:12.312Z,175
2016-02-24T13:44:44.093Z,175
2016-02-24T13:45:24.988Z,175
2016-02-24T13:46:50.599Z,170
2016-02-24T13:47:37.711Z,170
2016-02-24T13:49:27.576Z,170
2016-02-24T13:49:46.420Z,165
2016-02-24T13:50:59.453Z,155
2016-02-24T13:51:52.910Z,150
2016-02-24T13:53:05.865Z,150
2016-02-24T13:55:52.577Z,170
2016-02-24T13:56:52.642Z,170
2016-02-24T13:58:05.363Z,175
2016-02-24T13:58:52.850Z,175
2016-02-24T14:00:11.871Z,175
2016-02-24T14:00:52.699Z,170
2016-02-24T14:02:43.189Z,170
2016-02-24T14:03:08.550Z,165
2016-02-24T14:05:05.499Z,160
2016-02-24T14:05:18.095Z,160
2016-02-24T14:07:16.490Z,150
2016-02-24T14:07:29.053Z,150
2016-02-24T14:09:31.699Z,165
2016-02-24T14:10:03.465Z,165
2016-02-24T14:10:44.498Z,165
2016-02-24T14:12:09.972Z,165
2016-02-24T14:12:44.363Z,160
2016-02-24T14:13:44.334Z,160
2016-02-24T14:14:44.932Z,160
2016-02-24T14:15:44.387Z,160
2016-02-24T14:16:44.374Z,160
2016-02-24T14:17:45.033Z,160
2016-02-24T14:18:45.004Z,160
2016-02-24T14:19:44.429Z,165
2016-02-24T14:20:44.416Z,165
2016-02-24T14:21:50.763Z,170
2016-02-24T14:22:50.953Z,175
2016-02-24T14:23:57.408Z,175
2016-02-24T14:25:03.708Z,180
2016-02-24T14:26:03.742Z,185
2016-02-24T14:27:47.169Z,190
2016-02-24T14:28:12.485Z,190
2016-02-24T14:28:59.766Z,195
2016-02-24T14:30:51.224Z,185
2016-02-24T14:31:06.849Z,185
2016-02-24T14:32:54.402Z,175
2016-02-24T14:33:13.263Z,170
2016-02-24T14:35:11.003Z,160
2016-02-24T14:35:23.268Z,160
2016-02-24T14:36:23.429Z,155
2016-02-24T14:37:23.727Z,145
2016-02-24T14:38:36.184Z,145
2016-02-24T14:39:23.515Z,145
2016-02-24T14:41:20.487Z,155
2016-02-24T14:41:58.737Z,155
2016-02-24T14:42:33.085Z,160
2016-02-24T14:43:33.087Z,165
2016-02-24T14:44:45.840Z,165
2016-02-24T14:45:45.842Z,170
2016-02-24T14:46:52.470Z,175
2016-02-24T14:48:55.819Z,175
2016-02-24T14:49:58.869Z,165
2016-02-24T14:51:14.047Z,145
2016-02-24T14:51:52.281Z,140
2016-02-24T14:52:26.471Z,135
2016-02-24T14:54:29.273Z,105
2016-02-24T14:55:07.523Z,100
2016-02-24T14:55:41.916Z,90
2016-02-24T14:57:44.578Z,80
2016-02-24T14:58:22.956Z,95
2016-02-24T14:58:57.175Z,110
2016-02-24T15:01:01.210Z,140
2016-02-24T15:01:39.496Z,140
2016-02-24T15:02:13.794Z,140
2016-02-24T15:03:45.140Z,135
2016-02-24T15:05:05.018Z,115
2016-02-24T15:05:17.482Z,105
2016-02-24T15:07:20.081Z,135
2016-02-24T15:07:51.847Z,145
2016-02-24T15:08:32.661Z,150
2016-02-24T15:09:32.680Z,155
2016-02-24T15:10:45.433Z,145
2016-02-24T15:11:33.107Z,140
2016-02-24T15:12:51.969Z,130
2016-02-24T15:13:32.769Z,125